sensor_id;sensor_type;location;lat;lon;timestamp;P1;durP1;ratioP1;P2;durP2;ratioP2
6868;SDS011;3473;42.604;23.496;2023-12-22T09:40:58;25.43;;;17.13;;
6868;SDS011;3473;42.604;23.496;2023-12-22T09:42:31;30.88;;;18.38;;
6868;SDS011;3473;42.604;23.496;2023-12-22T09:44:02;30.08;;;18.75;;
6868;SDS011;3473;42.604;23.496;2023-12-22T09:45:39;26.77;;;17.65;;
6868;SDS011;3473;42.604;23.496;2023-12-22T09:47:10;28.52;;;17.85;;
6868;SDS011;3473;42.604;23.496;2023-12-22T09:48:43;25.95;;;16.95;;
6868;SDS011;3473;42.604;23.496;2023-12-22T09:50:15;42.78;;;29.98;;
6868;SDS011;3473;42.604;23.496;2023-12-22T09:51:47;24.17;;;16.02;;
6868;SDS011;3473;42.604;23.496;2023-12-22T09:53:19;24.65;;;15.55;;
6868;SDS011;3473;42.604;23.496;2023-12-22T10:13:02;22.17;;;16.10;;
6868;SDS011;3473;42.604;23.496;2023-12-22T10:14:39;24.20;;;14.07;;
6868;SDS011;3473;42.604;23.496;2023-12-22T10:16:10;27.67;;;13.88;;
6868;SDS011;3473;42.604;23.496;2023-12-22T10:17:41;21.70;;;13.70;;
6868;SDS011;3473;42.604;23.496;2023-12-22T10:19:13;23.45;;;14.43;;
6868;SDS011;3473;42.604;23.496;2023-12-22T10:20:44;24.85;;;14.50;;
6868;SDS011;3473;42.604;23.496;2023-12-22T10:22:16;24.08;;;14.35;;
6868;SDS011;3473;42.604;23.496;2023-12-22T10:23:47;23.13;;;14.27;;
6868;SDS011;3473;42.604;23.496;2023-12-22T10:25:19;20.92;;;14.65;;
6868;SDS011;3473;42.604;23.496;2023-12-22T10:26:50;18.42;;;13.80;;
6868;SDS011;3473;42.604;23.496;2023-12-22T10:28:23;20.58;;;13.98;;
6868;SDS011;3473;42.604;23.496;2023-12-22T10:29:57;20.20;;;13.93;;
6868;SDS011;3473;42.604;23.496;2023-12-22T10:31:28;20.70;;;14.32;;
6868;SDS011;3473;42.604;23.496;2023-12-22T10:33:11;20.38;;;14.05;;
6868;SDS011;3473;42.604;23.496;2023-12-22T10:34:42;20.30;;;13.98;;
6868;SDS011;3473;42.604;23.496;2023-12-22T10:36:13;19.17;;;14.07;;
6868;SDS011;3473;42.604;23.496;2023-12-22T10:37:45;20.88;;;13.57;;
6868;SDS011;3473;42.604;23.496;2023-12-22T12:09:49;21.57;;;16.10;;
6868;SDS011;3473;42.604;23.496;2023-12-22T12:11:21;23.47;;;15.50;;
6868;SDS011;3473;42.604;23.496;2023-12-22T12:13:03;24.23;;;14.83;;
6868;SDS011;3473;42.604;23.496;2023-12-22T12:14:40;27.63;;;17.47;;
6868;SDS011;3473;42.604;23.496;2023-12-22T12:16:13;61.63;;;34.73;;
6868;SDS011;3473;42.604;23.496;2023-12-22T12:17:45;35.87;;;18.87;;
6868;SDS011;3473;42.604;23.496;2023-12-22T12:19:16;33.23;;;15.60;;
6868;SDS011;3473;42.604;23.496;2023-12-22T12:20:49;25.77;;;14.97;;
6868;SDS011;3473;42.604;23.496;2023-12-22T12:22:20;27.67;;;15.57;;
6868;SDS011;3473;42.604;23.496;2023-12-22T12:23:54;35.13;;;20.27;;
6868;SDS011;3473;42.604;23.496;2023-12-22T12:25:29;33.27;;;19.63;;
6868;SDS011;3473;42.604;23.496;2023-12-22T12:27:00;38.97;;;22.17;;
6868;SDS011;3473;42.604;23.496;2023-12-22T12:28:34;45.20;;;23.07;;
6868;SDS011;3473;42.604;23.496;2023-12-22T12:30:08;51.23;;;29.80;;
6868;SDS011;3473;42.604;23.496;2023-12-22T12:31:41;82.57;;;40.70;;
6868;SDS011;3473;42.604;23.496;2023-12-22T12:33:13;59.40;;;29.00;;
6868;SDS011;3473;42.604;23.496;2023-12-22T12:34:45;105.10;;;44.27;;
6868;SDS011;3473;42.604;23.496;2023-12-22T12:36:17;91.40;;;43.13;;
6868;SDS011;3473;42.604;23.496;2023-12-22T12:37:48;31.13;;;19.20;;
6868;SDS011;3473;42.604;23.496;2023-12-22T12:39:20;27.00;;;15.83;;
6868;SDS011;3473;42.604;23.496;2023-12-22T12:40:54;30.90;;;18.20;;
6868;SDS011;3473;42.604;23.496;2023-12-22T12:42:28;36.07;;;17.33;;
6868;SDS011;3473;42.604;23.496;2023-12-22T12:43:59;65.93;;;34.10;;
6868;SDS011;3473;42.604;23.496;2023-12-22T12:45:32;34.13;;;20.07;;
6868;SDS011;3473;42.604;23.496;2023-12-22T12:47:10;50.60;;;26.00;;
6868;SDS011;3473;42.604;23.496;2023-12-22T12:48:42;54.77;;;25.50;;
6868;SDS011;3473;42.604;23.496;2023-12-22T12:50:13;50.07;;;27.20;;
6868;SDS011;3473;42.604;23.496;2023-12-22T12:51:52;38.60;;;20.27;;
6868;SDS011;3473;42.604;23.496;2023-12-22T12:53:23;33.77;;;18.70;;
6868;SDS011;3473;42.604;23.496;2023-12-22T12:54:55;45.00;;;23.17;;
6868;SDS011;3473;42.604;23.496;2023-12-22T12:56:29;34.93;;;19.47;;
6868;SDS011;3473;42.604;23.496;2023-12-22T12:58:07;108.83;;;39.77;;
6868;SDS011;3473;42.604;23.496;2023-12-22T12:59:38;80.43;;;32.73;;
6868;SDS011;3473;42.604;23.496;2023-12-22T13:01:10;23.20;;;12.67;;
6868;SDS011;3473;42.604;23.496;2023-12-22T13:02:41;25.60;;;13.73;;
6868;SDS011;3473;42.604;23.496;2023-12-22T13:04:13;43.63;;;21.73;;
6868;SDS011;3473;42.604;23.496;2023-12-22T13:05:44;46.97;;;22.33;;
6868;SDS011;3473;42.604;23.496;2023-12-22T13:07:23;64.80;;;33.73;;
6868;SDS011;3473;42.604;23.496;2023-12-22T13:08:55;47.73;;;25.97;;
6868;SDS011;3473;42.604;23.496;2023-12-22T13:10:26;39.23;;;21.43;;
6868;SDS011;3473;42.604;23.496;2023-12-22T13:12:01;49.77;;;28.70;;
6868;SDS011;3473;42.604;23.496;2023-12-22T13:13:40;40.07;;;23.13;;
6868;SDS011;3473;42.604;23.496;2023-12-22T13:15:11;50.87;;;27.03;;
6868;SDS011;3473;42.604;23.496;2023-12-22T13:16:42;47.90;;;27.37;;
6868;SDS011;3473;42.604;23.496;2023-12-22T13:18:13;48.60;;;27.03;;
6868;SDS011;3473;42.604;23.496;2023-12-22T13:19:45;39.17;;;22.83;;
6868;SDS011;3473;42.604;23.496;2023-12-22T13:21:16;51.07;;;23.07;;
6868;SDS011;3473;42.604;23.496;2023-12-22T13:22:47;22.53;;;12.50;;
6868;SDS011;3473;42.604;23.496;2023-12-22T13:24:19;24.23;;;13.30;;
6868;SDS011;3473;42.604;23.496;2023-12-22T13:25:50;39.67;;;19.87;;
6868;SDS011;3473;42.604;23.496;2023-12-22T13:27:23;40.37;;;18.87;;
6868;SDS011;3473;42.604;23.496;2023-12-22T13:28:57;37.07;;;16.73;;
6868;SDS011;3473;42.604;23.496;2023-12-22T13:30:32;46.83;;;19.10;;
6868;SDS011;3473;42.604;23.496;2023-12-22T13:32:03;24.47;;;11.17;;
6868;SDS011;3473;42.604;23.496;2023-12-22T13:33:35;22.10;;;11.40;;
6868;SDS011;3473;42.604;23.496;2023-12-22T13:35:06;19.07;;;11.03;;
6868;SDS011;3473;42.604;23.496;2023-12-22T13:36:38;24.43;;;12.80;;
6868;SDS011;3473;42.604;23.496;2023-12-22T13:38:09;23.00;;;13.53;;
6868;SDS011;3473;42.604;23.496;2023-12-22T13:39:41;29.77;;;16.43;;
6868;SDS011;3473;42.604;23.496;2023-12-22T13:41:12;31.50;;;16.50;;
6868;SDS011;3473;42.604;23.496;2023-12-22T13:42:46;54.40;;;26.17;;
6868;SDS011;3473;42.604;23.496;2023-12-22T13:44:25;55.53;;;24.50;;
6868;SDS011;3473;42.604;23.496;2023-12-22T13:45:56;52.13;;;23.13;;
6868;SDS011;3473;42.604;23.496;2023-12-22T13:47:28;98.70;;;40.80;;
6868;SDS011;3473;42.604;23.496;2023-12-22T13:48:59;56.10;;;24.23;;
6868;SDS011;3473;42.604;23.496;2023-12-22T13:50:30;35.53;;;14.77;;
6868;SDS011;3473;42.604;23.496;2023-12-22T13:52:01;26.70;;;10.10;;
6868;SDS011;3473;42.604;23.496;2023-12-22T13:53:46;97.60;;;30.10;;
6868;SDS011;3473;42.604;23.496;2023-12-22T13:55:17;123.00;;;31.60;;
6868;SDS011;3473;42.604;23.496;2023-12-22T13:56:49;85.97;;;31.73;;
6868;SDS011;3473;42.604;23.496;2023-12-22T13:58:22;64.77;;;29.90;;
6868;SDS011;3473;42.604;23.496;2023-12-22T13:59:54;45.00;;;19.43;;
6868;SDS011;3473;42.604;23.496;2023-12-22T14:01:25;14.90;;;7.47;;
6868;SDS011;3473;42.604;23.496;2023-12-22T14:02:57;12.33;;;7.07;;
6868;SDS011;3473;42.604;23.496;2023-12-22T14:04:28;12.37;;;6.30;;
6868;SDS011;3473;42.604;23.496;2023-12-22T14:06:00;14.33;;;8.33;;
6868;SDS011;3473;42.604;23.496;2023-12-22T14:07:33;19.93;;;10.57;;
6868;SDS011;3473;42.604;23.496;2023-12-22T14:09:05;16.10;;;8.37;;
6868;SDS011;3473;42.604;23.496;2023-12-22T14:10:35;19.10;;;9.57;;
6868;SDS011;3473;42.604;23.496;2023-12-22T14:12:07;14.43;;;7.10;;
6868;SDS011;3473;42.604;23.496;2023-12-22T14:13:39;9.47;;;5.23;;
6868;SDS011;3473;42.604;23.496;2023-12-22T14:15:11;7.10;;;4.83;;
6868;SDS011;3473;42.604;23.496;2023-12-22T14:16:42;7.90;;;5.07;;
6868;SDS011;3473;42.604;23.496;2023-12-22T14:18:13;12.87;;;7.07;;
6868;SDS011;3473;42.604;23.496;2023-12-22T14:19:44;19.07;;;10.33;;
6868;SDS011;3473;42.604;23.496;2023-12-22T14:21:16;17.57;;;10.30;;
6868;SDS011;3473;42.604;23.496;2023-12-22T14:22:46;18.87;;;9.83;;
6868;SDS011;3473;42.604;23.496;2023-12-22T14:24:18;18.93;;;9.10;;
6868;SDS011;3473;42.604;23.496;2023-12-22T14:25:49;27.23;;;13.20;;
6868;SDS011;3473;42.604;23.496;2023-12-22T14:27:22;15.33;;;8.27;;
6868;SDS011;3473;42.604;23.496;2023-12-22T14:28:55;26.47;;;12.70;;
6868;SDS011;3473;42.604;23.496;2023-12-22T14:30:27;26.20;;;13.23;;
6868;SDS011;3473;42.604;23.496;2023-12-22T14:31:57;23.77;;;12.33;;
6868;SDS011;3473;42.604;23.496;2023-12-22T14:33:29;24.67;;;12.50;;
6868;SDS011;3473;42.604;23.496;2023-12-22T14:35:00;11.97;;;5.90;;
6868;SDS011;3473;42.604;23.496;2023-12-22T14:36:31;7.80;;;4.77;;
6868;SDS011;3473;42.604;23.496;2023-12-22T14:38:02;7.07;;;4.50;;
6868;SDS011;3473;42.604;23.496;2023-12-22T14:39:34;8.07;;;5.30;;
6868;SDS011;3473;42.604;23.496;2023-12-22T14:41:06;6.13;;;3.63;;
6868;SDS011;3473;42.604;23.496;2023-12-22T14:42:38;5.83;;;3.70;;
6868;SDS011;3473;42.604;23.496;2023-12-22T14:44:10;11.83;;;6.43;;
6868;SDS011;3473;42.604;23.496;2023-12-22T14:45:42;32.70;;;13.30;;
6868;SDS011;3473;42.604;23.496;2023-12-22T14:47:13;10.27;;;5.50;;
6868;SDS011;3473;42.604;23.496;2023-12-22T14:48:44;9.03;;;5.80;;
6868;SDS011;3473;42.604;23.496;2023-12-22T14:50:15;14.90;;;8.37;;
6868;SDS011;3473;42.604;23.496;2023-12-22T14:51:47;13.17;;;7.43;;
6868;SDS011;3473;42.604;23.496;2023-12-22T14:53:21;9.23;;;5.70;;
6868;SDS011;3473;42.604;23.496;2023-12-22T14:54:53;12.30;;;7.43;;
6868;SDS011;3473;42.604;23.496;2023-12-22T14:56:24;25.13;;;12.40;;
6868;SDS011;3473;42.604;23.496;2023-12-22T14:57:56;24.07;;;12.17;;
6868;SDS011;3473;42.604;23.496;2023-12-22T14:59:28;31.93;;;16.20;;
6868;SDS011;3473;42.604;23.496;2023-12-22T15:00:59;52.83;;;28.10;;
6868;SDS011;3473;42.604;23.496;2023-12-22T15:02:31;32.90;;;18.67;;
6868;SDS011;3473;42.604;23.496;2023-12-22T15:04:02;52.07;;;27.63;;
6868;SDS011;3473;42.604;23.496;2023-12-22T15:05:34;42.30;;;25.17;;
6868;SDS011;3473;42.604;23.496;2023-12-22T15:07:04;19.47;;;12.37;;
6868;SDS011;3473;42.604;23.496;2023-12-22T15:08:36;19.20;;;11.77;;
6868;SDS011;3473;42.604;23.496;2023-12-22T15:10:07;18.77;;;10.10;;
6868;SDS011;3473;42.604;23.496;2023-12-22T15:11:42;16.57;;;9.80;;
6868;SDS011;3473;42.604;23.496;2023-12-22T15:13:13;28.13;;;13.87;;
6868;SDS011;3473;42.604;23.496;2023-12-22T15:14:46;97.63;;;62.47;;
6868;SDS011;3473;42.604;23.496;2023-12-22T15:16:17;108.60;;;64.70;;
6868;SDS011;3473;42.604;23.496;2023-12-22T15:17:49;256.70;;;148.57;;
6868;SDS011;3473;42.604;23.496;2023-12-22T15:19:20;116.37;;;62.67;;
6868;SDS011;3473;42.604;23.496;2023-12-22T15:20:51;163.73;;;87.50;;
6868;SDS011;3473;42.604;23.496;2023-12-22T15:22:22;405.83;;;226.17;;
6868;SDS011;3473;42.604;23.496;2023-12-22T15:23:54;526.47;;;295.70;;
6868;SDS011;3473;42.604;23.496;2023-12-22T15:25:26;442.30;;;231.97;;
6868;SDS011;3473;42.604;23.496;2023-12-22T15:26:56;436.20;;;223.27;;
6868;SDS011;3473;42.604;23.496;2023-12-22T15:28:28;138.57;;;62.83;;
6868;SDS011;3473;42.604;23.496;2023-12-22T15:30:00;134.33;;;64.03;;
6868;SDS011;3473;42.604;23.496;2023-12-22T15:31:32;167.13;;;75.83;;
6868;SDS011;3473;42.604;23.496;2023-12-22T15:33:04;455.40;;;248.83;;
6868;SDS011;3473;42.604;23.496;2023-12-22T15:34:36;115.93;;;60.67;;
6868;SDS011;3473;42.604;23.496;2023-12-22T15:36:07;23.07;;;11.63;;
6868;SDS011;3473;42.604;23.496;2023-12-22T15:37:39;373.33;;;215.20;;
6868;SDS011;3473;42.604;23.496;2023-12-22T15:39:11;129.83;;;68.63;;
6868;SDS011;3473;42.604;23.496;2023-12-22T15:40:42;201.90;;;114.03;;
6868;SDS011;3473;42.604;23.496;2023-12-22T15:42:13;438.27;;;287.23;;
6868;SDS011;3473;42.604;23.496;2023-12-22T15:43:44;406.23;;;254.97;;
6868;SDS011;3473;42.604;23.496;2023-12-22T15:45:17;532.27;;;370.03;;
6868;SDS011;3473;42.604;23.496;2023-12-22T15:46:48;208.50;;;114.37;;
6868;SDS011;3473;42.604;23.496;2023-12-22T15:48:19;418.20;;;256.70;;
6868;SDS011;3473;42.604;23.496;2023-12-22T15:49:51;205.73;;;113.43;;
6868;SDS011;3473;42.604;23.496;2023-12-22T15:51:21;197.03;;;102.83;;
6868;SDS011;3473;42.604;23.496;2023-12-22T15:52:53;120.47;;;69.87;;
6868;SDS011;3473;42.604;23.496;2023-12-22T15:54:25;54.03;;;32.87;;
6868;SDS011;3473;42.604;23.496;2023-12-22T15:55:55;40.10;;;24.67;;
6868;SDS011;3473;42.604;23.496;2023-12-22T15:57:28;48.53;;;24.20;;
6868;SDS011;3473;42.604;23.496;2023-12-22T15:59:00;45.87;;;19.53;;
6868;SDS011;3473;42.604;23.496;2023-12-22T16:00:32;133.70;;;41.43;;
6868;SDS011;3473;42.604;23.496;2023-12-22T16:02:03;37.80;;;16.83;;
6868;SDS011;3473;42.604;23.496;2023-12-22T16:03:37;19.33;;;9.80;;
6868;SDS011;3473;42.604;23.496;2023-12-22T16:05:08;34.27;;;18.63;;
6868;SDS011;3473;42.604;23.496;2023-12-22T16:06:41;69.00;;;33.03;;
6868;SDS011;3473;42.604;23.496;2023-12-22T16:08:12;60.20;;;27.83;;
6868;SDS011;3473;42.604;23.496;2023-12-22T16:09:43;18.90;;;10.77;;
6868;SDS011;3473;42.604;23.496;2023-12-22T16:11:18;18.13;;;10.67;;
6868;SDS011;3473;42.604;23.496;2023-12-22T16:12:49;13.90;;;8.80;;
6868;SDS011;3473;42.604;23.496;2023-12-22T16:14:21;13.17;;;9.13;;
6868;SDS011;3473;42.604;23.496;2023-12-22T16:15:53;10.97;;;6.53;;
6868;SDS011;3473;42.604;23.496;2023-12-22T16:17:24;10.87;;;6.37;;
6868;SDS011;3473;42.604;23.496;2023-12-22T16:18:55;10.53;;;6.10;;
6868;SDS011;3473;42.604;23.496;2023-12-22T16:20:27;19.20;;;10.00;;
6868;SDS011;3473;42.604;23.496;2023-12-22T16:21:58;18.53;;;10.37;;
6868;SDS011;3473;42.604;23.496;2023-12-22T16:23:30;24.03;;;11.47;;
6868;SDS011;3473;42.604;23.496;2023-12-22T16:25:01;22.13;;;11.97;;
6868;SDS011;3473;42.604;23.496;2023-12-22T16:26:33;23.03;;;13.70;;
6868;SDS011;3473;42.604;23.496;2023-12-22T16:28:04;19.77;;;10.20;;
6868;SDS011;3473;42.604;23.496;2023-12-22T16:29:38;23.63;;;13.00;;
6868;SDS011;3473;42.604;23.496;2023-12-22T16:31:10;13.27;;;8.03;;
6868;SDS011;3473;42.604;23.496;2023-12-22T16:32:43;11.83;;;6.70;;
6868;SDS011;3473;42.604;23.496;2023-12-22T16:34:13;15.10;;;8.03;;
6868;SDS011;3473;42.604;23.496;2023-12-22T16:35:46;15.80;;;8.80;;
6868;SDS011;3473;42.604;23.496;2023-12-22T16:37:17;26.10;;;13.73;;
6868;SDS011;3473;42.604;23.496;2023-12-22T16:38:49;34.77;;;16.00;;
6868;SDS011;3473;42.604;23.496;2023-12-22T16:40:19;11.83;;;6.87;;
6868;SDS011;3473;42.604;23.496;2023-12-22T16:41:51;12.87;;;7.80;;
6868;SDS011;3473;42.604;23.496;2023-12-22T16:43:22;12.33;;;7.00;;
6868;SDS011;3473;42.604;23.496;2023-12-22T16:44:53;13.77;;;7.73;;
6868;SDS011;3473;42.604;23.496;2023-12-22T16:46:26;11.10;;;7.40;;
6868;SDS011;3473;42.604;23.496;2023-12-22T16:47:58;11.73;;;5.13;;
6868;SDS011;3473;42.604;23.496;2023-12-22T16:49:30;58.90;;;35.50;;
6868;SDS011;3473;42.604;23.496;2023-12-22T16:51:01;123.37;;;74.43;;
6868;SDS011;3473;42.604;23.496;2023-12-22T16:52:32;56.10;;;33.13;;
6868;SDS011;3473;42.604;23.496;2023-12-22T16:54:05;10.10;;;5.87;;
6868;SDS011;3473;42.604;23.496;2023-12-22T16:55:35;19.47;;;12.97;;
6868;SDS011;3473;42.604;23.496;2023-12-22T16:57:07;12.90;;;7.80;;
6868;SDS011;3473;42.604;23.496;2023-12-22T16:58:38;13.83;;;8.17;;
6868;SDS011;3473;42.604;23.496;2023-12-22T17:00:10;23.77;;;11.30;;
6868;SDS011;3473;42.604;23.496;2023-12-22T17:01:44;15.17;;;8.80;;
6868;SDS011;3473;42.604;23.496;2023-12-22T17:03:16;15.90;;;8.40;;
6868;SDS011;3473;42.604;23.496;2023-12-22T17:04:47;16.77;;;8.50;;
6868;SDS011;3473;42.604;23.496;2023-12-22T17:06:18;13.73;;;8.03;;
6868;SDS011;3473;42.604;23.496;2023-12-22T17:07:49;11.63;;;6.70;;
6868;SDS011;3473;42.604;23.496;2023-12-22T17:09:21;13.40;;;6.73;;
6868;SDS011;3473;42.604;23.496;2023-12-22T17:10:52;9.07;;;5.63;;
6868;SDS011;3473;42.604;23.496;2023-12-22T17:12:24;10.53;;;4.93;;
6868;SDS011;3473;42.604;23.496;2023-12-22T17:13:55;9.10;;;5.37;;
6868;SDS011;3473;42.604;23.496;2023-12-22T17:15:26;10.37;;;5.83;;
6868;SDS011;3473;42.604;23.496;2023-12-22T17:16:58;7.07;;;4.37;;
6868;SDS011;3473;42.604;23.496;2023-12-22T17:18:30;9.97;;;5.07;;
6868;SDS011;3473;42.604;23.496;2023-12-22T17:20:01;11.07;;;6.10;;
6868;SDS011;3473;42.604;23.496;2023-12-22T17:21:33;9.90;;;5.93;;
6868;SDS011;3473;42.604;23.496;2023-12-22T17:23:06;7.83;;;3.73;;
6868;SDS011;3473;42.604;23.496;2023-12-22T17:24:38;8.23;;;4.80;;
6868;SDS011;3473;42.604;23.496;2023-12-22T17:26:13;7.10;;;4.47;;
6868;SDS011;3473;42.604;23.496;2023-12-22T17:27:44;12.83;;;7.03;;
6868;SDS011;3473;42.604;23.496;2023-12-22T17:29:15;13.50;;;6.50;;
6868;SDS011;3473;42.604;23.496;2023-12-22T17:30:47;15.07;;;7.43;;
6868;SDS011;3473;42.604;23.496;2023-12-22T17:32:19;13.50;;;8.00;;
6868;SDS011;3473;42.604;23.496;2023-12-22T17:33:51;11.37;;;5.80;;
6868;SDS011;3473;42.604;23.496;2023-12-22T17:35:22;13.20;;;7.57;;
6868;SDS011;3473;42.604;23.496;2023-12-22T17:36:54;12.50;;;6.00;;
6868;SDS011;3473;42.604;23.496;2023-12-22T17:38:25;12.27;;;5.93;;
6868;SDS011;3473;42.604;23.496;2023-12-22T17:39:57;13.10;;;6.47;;
6868;SDS011;3473;42.604;23.496;2023-12-22T17:41:28;11.33;;;6.13;;
6868;SDS011;3473;42.604;23.496;2023-12-22T17:43:00;11.03;;;5.37;;
6868;SDS011;3473;42.604;23.496;2023-12-22T17:44:31;9.37;;;5.80;;
6868;SDS011;3473;42.604;23.496;2023-12-22T17:46:03;37.93;;;22.30;;
6868;SDS011;3473;42.604;23.496;2023-12-22T17:47:35;65.50;;;38.17;;
6868;SDS011;3473;42.604;23.496;2023-12-22T17:49:06;66.27;;;40.33;;
6868;SDS011;3473;42.604;23.496;2023-12-22T17:50:37;33.77;;;22.00;;
6868;SDS011;3473;42.604;23.496;2023-12-22T17:52:11;216.17;;;127.67;;
6868;SDS011;3473;42.604;23.496;2023-12-22T17:53:45;72.80;;;42.27;;
6868;SDS011;3473;42.604;23.496;2023-12-22T17:55:15;60.80;;;37.93;;
6868;SDS011;3473;42.604;23.496;2023-12-22T17:56:47;65.33;;;39.10;;
6868;SDS011;3473;42.604;23.496;2023-12-22T17:58:18;16.30;;;10.73;;
6868;SDS011;3473;42.604;23.496;2023-12-22T17:59:49;20.67;;;12.40;;
6868;SDS011;3473;42.604;23.496;2023-12-22T18:01:20;24.07;;;15.70;;
6868;SDS011;3473;42.604;23.496;2023-12-22T18:02:54;13.50;;;9.40;;
6868;SDS011;3473;42.604;23.496;2023-12-22T18:04:24;8.80;;;5.87;;
6868;SDS011;3473;42.604;23.496;2023-12-22T18:05:56;8.53;;;5.43;;
6868;SDS011;3473;42.604;23.496;2023-12-22T18:07:27;17.60;;;6.30;;
6868;SDS011;3473;42.604;23.496;2023-12-22T18:08:58;11.53;;;6.10;;
6868;SDS011;3473;42.604;23.496;2023-12-22T18:10:29;12.37;;;6.57;;
6868;SDS011;3473;42.604;23.496;2023-12-22T18:12:01;12.43;;;7.30;;
6868;SDS011;3473;42.604;23.496;2023-12-22T18:13:32;8.97;;;6.43;;
6868;SDS011;3473;42.604;23.496;2023-12-22T18:15:05;13.00;;;8.40;;
6868;SDS011;3473;42.604;23.496;2023-12-22T18:16:38;18.10;;;11.03;;
6868;SDS011;3473;42.604;23.496;2023-12-22T18:18:10;6.83;;;4.13;;
6868;SDS011;3473;42.604;23.496;2023-12-22T18:19:42;10.37;;;6.63;;
6868;SDS011;3473;42.604;23.496;2023-12-22T18:21:13;17.20;;;7.00;;
6868;SDS011;3473;42.604;23.496;2023-12-22T18:22:45;9.03;;;4.90;;
6868;SDS011;3473;42.604;23.496;2023-12-22T18:24:15;8.97;;;4.67;;
6868;SDS011;3473;42.604;23.496;2023-12-22T18:25:47;9.80;;;4.70;;
6868;SDS011;3473;42.604;23.496;2023-12-22T18:27:19;9.50;;;5.10;;
6868;SDS011;3473;42.604;23.496;2023-12-22T18:28:50;10.37;;;5.53;;
6868;SDS011;3473;42.604;23.496;2023-12-22T18:30:22;7.87;;;4.40;;
6868;SDS011;3473;42.604;23.496;2023-12-22T18:31:53;7.73;;;4.47;;
6868;SDS011;3473;42.604;23.496;2023-12-22T18:33:27;5.30;;;3.40;;
6868;SDS011;3473;42.604;23.496;2023-12-22T18:34:59;5.27;;;2.80;;
6868;SDS011;3473;42.604;23.496;2023-12-22T18:36:29;80.63;;;39.33;;
6868;SDS011;3473;42.604;23.496;2023-12-22T18:38:01;144.53;;;70.23;;
6868;SDS011;3473;42.604;23.496;2023-12-22T18:39:33;95.57;;;45.93;;
6868;SDS011;3473;42.604;23.496;2023-12-22T18:41:03;465.00;;;263.90;;
6868;SDS011;3473;42.604;23.496;2023-12-22T18:42:35;384.63;;;220.00;;
6868;SDS011;3473;42.604;23.496;2023-12-22T18:44:06;583.80;;;360.13;;
6868;SDS011;3473;42.604;23.496;2023-12-22T18:45:38;503.03;;;291.93;;
6868;SDS011;3473;42.604;23.496;2023-12-22T18:47:09;199.50;;;102.03;;
6868;SDS011;3473;42.604;23.496;2023-12-22T18:48:43;100.43;;;52.93;;
6868;SDS011;3473;42.604;23.496;2023-12-22T18:50:13;79.00;;;43.97;;
6868;SDS011;3473;42.604;23.496;2023-12-22T18:51:45;56.43;;;30.50;;
6868;SDS011;3473;42.604;23.496;2023-12-22T18:53:16;54.23;;;32.73;;
6868;SDS011;3473;42.604;23.496;2023-12-22T18:54:48;52.53;;;30.53;;
6868;SDS011;3473;42.604;23.496;2023-12-22T18:56:18;38.57;;;22.13;;
6868;SDS011;3473;42.604;23.496;2023-12-22T18:57:51;19.43;;;9.40;;
6868;SDS011;3473;42.604;23.496;2023-12-22T18:59:22;24.27;;;12.63;;
6868;SDS011;3473;42.604;23.496;2023-12-22T19:00:54;32.90;;;16.57;;
6868;SDS011;3473;42.604;23.496;2023-12-22T19:02:24;24.60;;;11.93;;
6868;SDS011;3473;42.604;23.496;2023-12-22T19:03:57;25.93;;;14.13;;
6868;SDS011;3473;42.604;23.496;2023-12-22T19:05:28;55.17;;;34.23;;
6868;SDS011;3473;42.604;23.496;2023-12-22T19:07:00;30.63;;;18.80;;
6868;SDS011;3473;42.604;23.496;2023-12-22T19:08:30;29.03;;;15.70;;
6868;SDS011;3473;42.604;23.496;2023-12-22T19:10:02;26.70;;;13.97;;
6868;SDS011;3473;42.604;23.496;2023-12-22T19:11:33;24.50;;;11.17;;
6868;SDS011;3473;42.604;23.496;2023-12-22T19:13:05;82.13;;;27.43;;
6868;SDS011;3473;42.604;23.496;2023-12-22T19:14:35;38.47;;;14.40;;
6868;SDS011;3473;42.604;23.496;2023-12-22T19:16:07;51.83;;;23.13;;
6868;SDS011;3473;42.604;23.496;2023-12-22T19:17:38;45.67;;;19.93;;
6868;SDS011;3473;42.604;23.496;2023-12-22T19:19:11;43.27;;;18.87;;
6868;SDS011;3473;42.604;23.496;2023-12-22T19:20:42;50.63;;;20.40;;
6868;SDS011;3473;42.604;23.496;2023-12-22T19:22:14;50.80;;;22.87;;
6868;SDS011;3473;42.604;23.496;2023-12-22T19:23:45;57.93;;;26.00;;
6868;SDS011;3473;42.604;23.496;2023-12-22T19:25:16;33.97;;;16.40;;
6868;SDS011;3473;42.604;23.496;2023-12-22T19:26:47;28.90;;;15.70;;
6868;SDS011;3473;42.604;23.496;2023-12-22T19:28:19;25.90;;;11.83;;
6868;SDS011;3473;42.604;23.496;2023-12-22T19:29:51;31.53;;;15.37;;
6868;SDS011;3473;42.604;23.496;2023-12-22T19:31:22;29.77;;;16.17;;
6868;SDS011;3473;42.604;23.496;2023-12-22T19:32:58;17.83;;;10.57;;
6868;SDS011;3473;42.604;23.496;2023-12-22T19:34:30;52.13;;;24.63;;
6868;SDS011;3473;42.604;23.496;2023-12-22T19:36:03;253.00;;;80.50;;
6868;SDS011;3473;42.604;23.496;2023-12-22T19:37:34;61.50;;;23.50;;
6868;SDS011;3473;42.604;23.496;2023-12-22T19:39:06;33.37;;;13.90;;
6868;SDS011;3473;42.604;23.496;2023-12-22T19:40:37;29.23;;;12.67;;
6868;SDS011;3473;42.604;23.496;2023-12-22T19:42:09;21.10;;;9.90;;
6868;SDS011;3473;42.604;23.496;2023-12-22T19:43:40;17.03;;;8.33;;
6868;SDS011;3473;42.604;23.496;2023-12-22T19:45:11;13.50;;;7.03;;
6868;SDS011;3473;42.604;23.496;2023-12-22T19:46:43;12.67;;;6.83;;
6868;SDS011;3473;42.604;23.496;2023-12-22T19:48:14;20.10;;;11.57;;
6868;SDS011;3473;42.604;23.496;2023-12-22T19:49:47;19.83;;;10.87;;
6868;SDS011;3473;42.604;23.496;2023-12-22T19:51:18;15.37;;;9.73;;
6868;SDS011;3473;42.604;23.496;2023-12-22T19:52:49;11.40;;;6.60;;
6868;SDS011;3473;42.604;23.496;2023-12-22T19:54:20;9.30;;;4.80;;
6868;SDS011;3473;42.604;23.496;2023-12-22T19:55:52;10.07;;;5.70;;
6868;SDS011;3473;42.604;23.496;2023-12-22T19:57:22;15.30;;;7.30;;
6868;SDS011;3473;42.604;23.496;2023-12-22T19:58:54;14.30;;;7.73;;
6868;SDS011;3473;42.604;23.496;2023-12-22T20:00:25;11.80;;;6.73;;
6868;SDS011;3473;42.604;23.496;2023-12-22T20:01:56;8.83;;;5.47;;
6868;SDS011;3473;42.604;23.496;2023-12-22T20:03:27;10.50;;;5.50;;
6868;SDS011;3473;42.604;23.496;2023-12-22T20:05:00;9.17;;;4.80;;
6868;SDS011;3473;42.604;23.496;2023-12-22T20:06:31;8.20;;;4.30;;
6868;SDS011;3473;42.604;23.496;2023-12-22T20:08:05;8.90;;;5.13;;
6868;SDS011;3473;42.604;23.496;2023-12-22T20:09:37;10.57;;;5.23;;
6868;SDS011;3473;42.604;23.496;2023-12-22T20:11:09;9.93;;;5.03;;
6868;SDS011;3473;42.604;23.496;2023-12-22T20:12:41;10.13;;;4.80;;
6868;SDS011;3473;42.604;23.496;2023-12-22T20:14:13;15.97;;;7.87;;
6868;SDS011;3473;42.604;23.496;2023-12-22T20:15:45;28.17;;;14.63;;
6868;SDS011;3473;42.604;23.496;2023-12-22T20:17:16;42.07;;;20.93;;
6868;SDS011;3473;42.604;23.496;2023-12-22T20:18:47;57.00;;;26.60;;
6868;SDS011;3473;42.604;23.496;2023-12-22T20:20:19;29.20;;;14.87;;
6868;SDS011;3473;42.604;23.496;2023-12-22T20:21:51;26.47;;;11.07;;
6868;SDS011;3473;42.604;23.496;2023-12-22T20:23:22;17.80;;;9.47;;
6868;SDS011;3473;42.604;23.496;2023-12-22T20:24:54;59.70;;;38.37;;
6868;SDS011;3473;42.604;23.496;2023-12-22T20:26:24;43.13;;;22.13;;
6868;SDS011;3473;42.604;23.496;2023-12-22T20:27:56;48.60;;;20.87;;
6868;SDS011;3473;42.604;23.496;2023-12-22T20:29:27;50.13;;;22.30;;
6868;SDS011;3473;42.604;23.496;2023-12-22T20:30:59;62.03;;;26.57;;
6868;SDS011;3473;42.604;23.496;2023-12-22T20:32:30;37.50;;;18.37;;
6868;SDS011;3473;42.604;23.496;2023-12-22T20:34:01;41.27;;;19.10;;
6868;SDS011;3473;42.604;23.496;2023-12-22T20:35:33;86.80;;;38.40;;
6868;SDS011;3473;42.604;23.496;2023-12-22T20:37:05;42.27;;;19.87;;